createdAt,value
2018-07-03T00:03:25.673Z,2.50
2018-07-03T00:08:20.319Z,2.60
2018-07-03T00:13:15.024Z,2.60
2018-07-03T00:18:09.644Z,2.97
2018-07-03T00:23:04.262Z,2.70
2018-07-03T00:27:58.866Z,2.70
2018-07-03T00:32:53.736Z,2.53
2018-07-03T00:37:48.347Z,2.80
2018-07-03T00:42:42.955Z,2.53
2018-07-03T00:47:37.541Z,3.20
2018-07-03T00:52:32.444Z,2.63
2018-07-03T00:57:26.723Z,3.70
2018-07-03T01:02:21.051Z,3.00
2018-07-03T01:07:15.652Z,3.67
2018-07-03T01:12:09.958Z,2.77
2018-07-03T01:17:04.615Z,2.80
2018-07-03T01:21:59.233Z,3.13
2018-07-03T01:26:53.951Z,2.73
2018-07-03T01:31:48.562Z,3.90
2018-07-03T01:36:43.139Z,2.63
2018-07-03T01:41:37.772Z,2.73
2018-07-03T01:46:32.388Z,3.07
2018-07-03T01:51:27.257Z,3.43
2018-07-03T01:56:21.841Z,2.70
2018-07-03T02:01:16.657Z,4.13
2018-07-03T02:06:11.228Z,3.43
2018-07-03T02:11:05.832Z,5.03
2018-07-03T02:16:00.439Z,2.93
2018-07-03T02:20:55.044Z,4.37
2018-07-03T02:25:49.616Z,3.07
2018-07-03T02:30:44.215Z,6.73
2018-07-03T02:35:38.831Z,3.03
2018-07-03T02:40:33.456Z,2.80
2018-07-03T02:45:28.053Z,3.07
2018-07-03T02:50:22.607Z,2.93
2018-07-03T02:55:17.166Z,3.10
2018-07-03T03:00:12.068Z,3.13
2018-07-03T03:05:06.763Z,3.27
2018-07-03T03:10:01.372Z,2.80
2018-07-03T03:14:56.029Z,3.57
2018-07-03T03:19:50.607Z,3.20
2018-07-03T03:24:45.231Z,3.27
2018-07-03T03:29:39.949Z,3.00
2018-07-03T03:34:34.527Z,3.90
2018-07-03T03:39:29.135Z,3.57
2018-07-03T03:44:23.713Z,3.30
2018-07-03T03:49:18.348Z,2.97
2018-07-03T03:54:13.004Z,3.40
2018-07-03T03:59:07.298Z,2.60
2018-07-03T04:04:01.926Z,3.67
2018-07-03T04:08:56.196Z,2.97
2018-07-03T04:13:51.090Z,3.20
2018-07-03T04:18:45.686Z,3.20
2018-07-03T04:23:40.291Z,3.10
2018-07-03T04:28:35.144Z,2.73
2018-07-03T04:33:29.827Z,4.00
2018-07-03T04:38:24.428Z,3.50
2018-07-03T04:43:19.211Z,3.23
2018-07-03T04:48:13.909Z,4.87
2018-07-03T04:53:08.536Z,3.17
2018-07-03T04:58:03.696Z,3.37
2018-07-03T05:02:59.531Z,7.23
2018-07-03T05:07:54.274Z,6.37
2018-07-03T05:12:48.859Z,3.73
2018-07-03T05:17:43.437Z,7.80
2018-07-03T05:22:38.085Z,4.07
2018-07-03T05:27:32.711Z,6.13
2018-07-03T05:32:27.457Z,4.73
2018-07-03T05:37:22.045Z,3.40
2018-07-03T05:42:16.667Z,4.77
2018-07-03T05:47:11.255Z,4.40
2018-07-03T05:52:06.126Z,3.27
2018-07-03T05:57:00.740Z,2.77
2018-07-03T06:01:55.401Z,4.00
2018-07-03T06:06:50.046Z,2.60
2018-07-03T06:11:44.659Z,3.23
2018-07-03T06:16:39.256Z,3.23
2018-07-03T06:21:33.847Z,4.27
2018-07-03T06:26:28.501Z,4.00
2018-07-03T06:31:24.063Z,4.40
2018-07-03T06:36:18.656Z,5.87
2018-07-03T06:41:13.227Z,2.57
2018-07-03T06:46:07.832Z,2.92
2018-07-03T06:51:02.460Z,3.20
2018-07-03T06:55:57.088Z,2.70
2018-07-03T07:00:51.684Z,2.40
2018-07-03T07:05:46.283Z,2.90
2018-07-03T07:10:40.943Z,2.30
2018-07-03T07:15:35.610Z,3.03
2018-07-03T07:20:29.890Z,2.70
2018-07-03T07:25:24.456Z,4.13
2018-07-03T07:30:19.073Z,2.40
2018-07-03T07:35:13.691Z,3.60
2018-07-03T07:40:08.316Z,4.83
2018-07-03T07:45:02.941Z,10.20
2018-07-03T07:49:57.613Z,6.00
2018-07-03T07:54:52.204Z,8.70
2018-07-03T07:59:46.772Z,4.30
2018-07-03T08:04:41.380Z,4.87
2018-07-03T08:09:35.936Z,6.27
2018-07-03T08:14:30.569Z,7.07
2018-07-03T08:19:25.156Z,6.23
2018-07-03T08:24:19.774Z,5.40
2018-07-03T08:29:14.327Z,5.93
2018-07-03T08:34:08.993Z,5.10
2018-07-03T08:39:03.892Z,6.53
2018-07-03T08:43:58.549Z,5.40
2018-07-03T08:48:53.163Z,6.57
2018-07-03T08:53:47.872Z,6.23
2018-07-03T08:58:42.491Z,4.77
2018-07-03T09:03:37.147Z,5.63
2018-07-03T09:08:31.791Z,5.07
2018-07-03T09:13:26.560Z,9.57
2018-07-03T09:18:21.481Z,6.30
2018-07-03T09:23:16.396Z,6.20
2018-07-03T09:28:11.152Z,8.10
2018-07-03T09:33:05.880Z,5.83
2018-07-03T09:38:00.519Z,7.50
2018-07-03T09:42:55.223Z,5.37
2018-07-03T09:47:49.831Z,5.60
2018-07-03T09:52:44.418Z,7.13
2018-07-03T09:57:39.054Z,5.67
2018-07-03T10:02:33.652Z,4.37
2018-07-03T10:07:28.249Z,5.27
2018-07-03T10:12:22.907Z,8.77
2018-07-03T10:17:17.540Z,4.63
2018-07-03T10:22:12.147Z,3.97
2018-07-03T10:27:06.791Z,4.83
2018-07-03T10:32:01.420Z,3.77
2018-07-03T10:36:56.018Z,3.43
2018-07-03T10:41:50.663Z,4.50
2018-07-03T10:46:45.295Z,3.40
2018-07-03T10:51:39.857Z,3.67
2018-07-03T10:56:34.463Z,3.73
2018-07-03T11:01:29.105Z,2.73
2018-07-03T11:06:23.721Z,2.57
2018-07-03T11:11:18.327Z,3.90
2018-07-03T11:16:12.976Z,2.73
2018-07-03T11:21:08.051Z,2.97
2018-07-03T11:26:02.700Z,5.00
2018-07-03T11:30:57.421Z,2.67
2018-07-03T11:35:52.053Z,3.93
2018-07-03T11:40:46.707Z,3.20
2018-07-03T11:45:41.335Z,5.40
2018-07-03T11:50:35.956Z,3.07
2018-07-03T11:55:30.592Z,3.20
2018-07-03T12:00:25.264Z,2.67
2018-07-03T12:05:19.868Z,4.50
2018-07-03T12:10:14.453Z,3.58
2018-07-03T12:15:09.104Z,2.70
2018-07-03T12:20:03.860Z,4.70
2018-07-03T12:24:58.456Z,4.37
2018-07-03T12:29:53.131Z,2.70
2018-07-03T12:34:47.699Z,3.85
2018-07-03T12:39:42.307Z,3.85
2018-07-03T12:44:37.067Z,2.47
2018-07-03T12:49:31.659Z,2.83
2018-07-03T12:54:26.232Z,2.52
2018-07-03T12:59:20.859Z,4.42
2018-07-03T13:04:15.450Z,2.50
2018-07-03T13:09:11.868Z,2.05
2018-07-03T13:14:06.763Z,2.70
2018-07-03T13:19:01.054Z,2.47
2018-07-03T13:23:55.678Z,5.15
2018-07-03T13:28:50.364Z,2.80
2018-07-03T13:33:45.007Z,1.70
2018-07-03T13:38:39.619Z,4.83
2018-07-03T13:43:34.228Z,2.25
2018-07-03T13:48:28.924Z,3.65
2018-07-03T13:53:23.461Z,3.60
2018-07-03T13:58:18.095Z,2.00
2018-07-03T14:03:12.716Z,3.75
2018-07-03T14:08:07.412Z,3.42
2018-07-03T14:13:02.020Z,4.30
2018-07-03T14:17:56.993Z,5.28
2018-07-03T14:22:51.624Z,4.25
2018-07-03T14:27:46.239Z,3.92
2018-07-03T14:32:40.860Z,3.92
2018-07-03T14:37:35.533Z,3.85
2018-07-03T14:42:30.174Z,3.50
2018-07-03T14:47:24.743Z,3.60
2018-07-03T14:52:19.424Z,3.10
2018-07-03T14:57:14.031Z,3.58
2018-07-03T15:02:08.771Z,4.80
2018-07-03T15:07:03.331Z,3.80
2018-07-03T15:11:57.919Z,4.15
2018-07-03T15:16:52.530Z,4.50
2018-07-03T15:21:47.183Z,7.20
2018-07-03T15:26:42.545Z,7.83
2018-07-03T15:31:37.348Z,5.60
2018-07-03T15:36:32.002Z,6.15
2018-07-03T15:41:26.643Z,7.97
2018-07-03T15:46:21.263Z,7.90
2018-07-03T15:51:15.863Z,5.75
2018-07-03T15:56:10.507Z,8.05
2018-07-03T16:01:05.312Z,5.00
2018-07-03T16:09:17.088Z,5.22
2018-07-03T16:14:12.305Z,3.98
2018-07-03T16:19:12.162Z,3.60
2018-07-03T16:24:07.263Z,5.50
2018-07-03T16:29:01.564Z,3.30
2018-07-03T16:33:57.108Z,4.17
2018-07-03T16:38:51.950Z,3.15
2018-07-03T16:43:46.504Z,3.15
2018-07-03T16:48:41.256Z,3.92
2018-07-03T16:53:35.820Z,4.83
2018-07-03T16:58:30.497Z,6.12
2018-07-03T17:03:25.132Z,4.57
2018-07-03T17:08:19.806Z,4.17
2018-07-03T17:13:14.415Z,4.13
2018-07-03T17:18:09.151Z,3.98
2018-07-03T17:23:03.804Z,5.43
2018-07-03T17:27:58.094Z,4.35
2018-07-03T17:32:52.727Z,3.90
2018-07-03T17:37:47.353Z,6.37
2018-07-03T17:42:58.691Z,4.20
2018-07-03T17:47:53.340Z,5.33
2018-07-03T17:52:47.687Z,5.40
2018-07-03T17:57:48.116Z,3.10
2018-07-03T18:02:42.995Z,5.13
2018-07-03T18:07:38.282Z,4.57
2018-07-03T18:12:32.896Z,3.73
2018-07-03T18:17:27.543Z,4.50
2018-07-03T18:22:22.184Z,4.10
2018-07-03T18:27:16.865Z,4.40
2018-07-03T18:32:11.485Z,4.43
2018-07-03T18:37:06.186Z,6.50
2018-07-03T18:42:00.819Z,3.67
2018-07-03T18:46:55.459Z,2.90
2018-07-03T18:51:50.122Z,2.97
2018-07-03T18:56:44.822Z,3.87
2018-07-03T19:01:39.492Z,3.10
2018-07-03T19:06:34.142Z,5.67
2018-07-03T19:11:28.795Z,3.77
2018-07-03T19:16:23.935Z,3.50
2018-07-03T19:21:18.722Z,4.20
2018-07-03T19:26:14.232Z,3.47
2018-07-03T19:31:08.921Z,4.07
2018-07-03T19:36:03.659Z,3.63
2018-07-03T19:40:58.244Z,4.70
2018-07-03T19:45:53.786Z,3.97
2018-07-03T19:50:49.797Z,3.93
2018-07-03T19:55:44.757Z,3.50
2018-07-03T20:00:39.468Z,3.47
2018-07-03T20:05:34.435Z,4.07
2018-07-03T20:10:29.103Z,3.97
2018-07-03T20:15:23.764Z,3.90
2018-07-03T20:20:18.376Z,5.57
2018-07-03T20:25:13.640Z,5.03
2018-07-03T20:30:08.327Z,4.40
2018-07-03T20:35:03.256Z,5.00
2018-07-03T20:39:57.882Z,6.73
2018-07-03T20:44:52.500Z,6.33
2018-07-03T20:49:47.185Z,4.80
2018-07-03T20:54:43.631Z,5.67
2018-07-03T20:59:38.234Z,5.53
2018-07-03T21:04:32.886Z,4.47
2018-07-03T21:09:27.485Z,5.77
2018-07-03T21:14:22.063Z,7.40
2018-07-03T21:19:21.224Z,5.83
2018-07-03T21:24:15.851Z,5.90
2018-07-03T21:29:10.477Z,5.30
2018-07-03T21:34:05.165Z,6.00
2018-07-03T21:38:59.805Z,5.47
2018-07-03T21:43:54.402Z,5.90
2018-07-03T21:48:49.061Z,5.50
2018-07-03T21:53:43.645Z,5.63
2018-07-03T21:58:38.228Z,7.30
2018-07-03T22:03:32.855Z,5.73
2018-07-03T22:08:27.496Z,5.37
2018-07-03T22:13:22.057Z,5.83
2018-07-03T22:18:16.611Z,9.73
2018-07-03T22:23:11.182Z,6.53
2018-07-03T22:28:05.847Z,7.27
2018-07-03T22:33:00.439Z,6.20
2018-07-03T22:37:55.074Z,6.43
2018-07-03T22:42:49.700Z,6.57
2018-07-03T22:47:44.283Z,7.07
2018-07-03T22:52:38.920Z,6.73
2018-07-03T22:57:33.506Z,6.80
2018-07-03T23:02:28.114Z,6.33
2018-07-03T23:07:22.724Z,6.97
2018-07-03T23:12:19.116Z,8.60
2018-07-03T23:17:13.734Z,8.30
2018-07-03T23:22:08.343Z,7.13
2018-07-03T23:27:02.968Z,8.60
2018-07-03T23:36:48.348Z,7.40
2018-07-03T23:41:42.940Z,6.63
2018-07-03T23:46:54.099Z,8.00
2018-07-03T23:52:05.257Z,7.73
2018-07-03T23:57:16.375Z,9.13
